createdAt,value
2022-11-06T00:01:13.578Z,100.00
2022-11-06T00:04:15.111Z,100.00
2022-11-06T00:07:16.610Z,100.00
2022-11-06T00:10:18.831Z,100.00
2022-11-06T00:13:20.339Z,100.00
2022-11-06T00:16:22.008Z,100.00
2022-11-06T00:19:23.530Z,100.00
2022-11-06T00:22:25.174Z,100.00
2022-11-06T00:25:26.671Z,100.00
2022-11-06T00:28:28.189Z,100.00
2022-11-06T00:31:32.920Z,100.00
2022-11-06T00:34:35.035Z,100.00
2022-11-06T00:37:36.633Z,100.00
2022-11-06T00:40:38.246Z,100.00
2022-11-06T00:43:40.635Z,100.00
2022-11-06T00:46:42.145Z,100.00
2022-11-06T00:49:43.666Z,100.00
2022-11-06T00:52:45.308Z,100.00
2022-11-06T00:55:46.820Z,100.00
2022-11-06T00:58:48.714Z,100.00
2022-11-06T01:01:50.405Z,100.00
2022-11-06T01:04:52.015Z,100.00
2022-11-06T01:07:53.477Z,100.00
2022-11-06T01:10:54.955Z,100.00
2022-11-06T01:13:59.513Z,100.00
2022-11-06T01:17:01.026Z,100.00
2022-11-06T01:20:04.791Z,100.00
2022-11-06T01:23:06.313Z,100.00
2022-11-06T01:26:09.710Z,100.00
2022-11-06T01:29:15.122Z,100.00
2022-11-06T01:32:16.661Z,100.00
2022-11-06T01:35:18.098Z,100.00
2022-11-06T01:38:19.585Z,100.00
2022-11-06T01:41:24.863Z,100.00
2022-11-06T01:44:55.619Z,100.00
2022-11-06T01:47:57.234Z,100.00
2022-11-06T01:50:59.055Z,100.00
2022-11-06T01:54:02.962Z,100.00
2022-11-06T01:57:05.166Z,100.00
2022-11-06T02:00:07.581Z,100.00
2022-11-06T02:03:10.041Z,100.00
2022-11-06T02:06:12.016Z,100.00
2022-11-06T02:09:14.760Z,100.00
2022-11-06T02:12:47.934Z,100.00
2022-11-06T02:16:03.939Z,100.00
2022-11-06T02:19:30.426Z,100.00
2022-11-06T02:22:56.866Z,100.00
2022-11-06T02:26:17.010Z,100.00
2022-11-06T02:29:22.562Z,100.00
2022-11-06T02:32:50.714Z,100.00
2022-11-06T02:36:03.094Z,100.00
2022-11-06T02:39:11.016Z,100.00
2022-11-06T02:42:16.345Z,100.00
2022-11-06T02:45:19.849Z,100.00
2022-11-06T02:48:28.383Z,100.00
2022-11-06T02:51:34.293Z,100.00
2022-11-06T02:54:41.568Z,100.00
2022-11-06T02:57:49.282Z,100.00
2022-11-06T03:01:00.238Z,100.00
2022-11-06T03:04:07.655Z,100.00
2022-11-06T03:07:18.467Z,100.00
2022-11-06T03:10:21.052Z,100.00
2022-11-06T03:13:32.047Z,100.00
2022-11-06T03:16:53.673Z,100.00
2022-11-06T03:20:13.515Z,100.00
2022-11-06T03:23:27.902Z,100.00
2022-11-06T03:26:35.953Z,100.00
2022-11-06T03:30:03.819Z,100.00
2022-11-06T03:33:27.830Z,100.00
2022-11-06T03:36:42.377Z,100.00
2022-11-06T03:39:50.606Z,100.00
2022-11-06T03:42:57.131Z,100.00
2022-11-06T03:46:02.019Z,100.00
2022-11-06T03:49:10.129Z,100.00
2022-11-06T03:52:18.946Z,100.00
2022-11-06T03:55:26.658Z,100.00
2022-11-06T03:58:34.007Z,100.00
2022-11-06T04:01:42.426Z,100.00
2022-11-06T04:04:51.265Z,100.00
2022-11-06T04:08:15.244Z,100.00
2022-11-06T04:11:39.270Z,100.00
2022-11-06T04:14:44.676Z,100.00
2022-11-06T04:17:46.317Z,100.00
2022-11-06T04:21:27.672Z,100.00
2022-11-06T04:25:21.319Z,100.00
2022-11-06T04:28:44.009Z,100.00
2022-11-06T04:31:57.512Z,100.00
2022-11-06T04:35:10.136Z,100.00
2022-11-06T04:38:27.201Z,100.00
2022-11-06T04:42:01.358Z,100.00
2022-11-06T04:45:08.475Z,100.00
2022-11-06T04:48:11.271Z,100.00
2022-11-06T04:51:14.399Z,100.00
2022-11-06T04:54:16.513Z,100.00
2022-11-06T04:57:18.097Z,100.00
2022-11-06T05:00:19.807Z,100.00
2022-11-06T05:03:21.255Z,100.00
2022-11-06T05:06:28.736Z,100.00
2022-11-06T05:09:31.632Z,100.00
2022-11-06T05:12:33.179Z,100.00
2022-11-06T05:15:34.795Z,100.00
2022-11-06T05:18:36.382Z,100.00
2022-11-06T05:21:56.720Z,100.00
2022-11-06T05:24:58.197Z,100.00
2022-11-06T05:28:01.062Z,100.00
2022-11-06T05:31:02.963Z,100.00
2022-11-06T05:34:04.581Z,100.00
2022-11-06T05:37:06.082Z,100.00
2022-11-06T05:40:11.276Z,100.00
2022-11-06T05:43:13.015Z,100.00
2022-11-06T05:46:35.749Z,100.00
2022-11-06T05:49:36.116Z,100.00
2022-11-06T05:52:37.938Z,100.00
2022-11-06T05:55:39.559Z,100.00
2022-11-06T05:58:41.086Z,100.00
2022-11-06T06:01:42.776Z,100.00
2022-11-06T06:04:44.405Z,100.00
2022-11-06T06:07:45.888Z,100.00
2022-11-06T06:10:48.135Z,100.00
2022-11-06T06:13:49.618Z,100.00
2022-11-06T06:16:51.124Z,100.00
2022-11-06T06:19:53.027Z,100.00
2022-11-06T06:22:56.109Z,100.00
2022-11-06T06:25:57.681Z,100.00
2022-11-06T06:28:59.196Z,100.00
2022-11-06T06:32:00.731Z,100.00
2022-11-06T06:35:02.220Z,100.00
2022-11-06T06:38:03.714Z,100.00
2022-11-06T06:41:07.142Z,100.00
2022-11-06T06:44:08.758Z,100.00
2022-11-06T06:47:10.239Z,100.00
2022-11-06T06:50:11.809Z,100.00
2022-11-06T06:53:13.311Z,100.00
2022-11-06T06:56:15.627Z,100.00
2022-11-06T06:59:17.217Z,100.00
2022-11-06T07:02:19.076Z,100.00
2022-11-06T07:05:20.866Z,100.00
2022-11-06T07:08:22.357Z,100.00
2022-11-06T07:11:23.891Z,100.00
2022-11-06T07:14:25.433Z,100.00
2022-11-06T07:17:27.716Z,100.00
2022-11-06T07:20:29.699Z,100.00
2022-11-06T07:23:31.235Z,100.00
2022-11-06T07:26:32.706Z,100.00
2022-11-06T07:29:34.221Z,100.00
2022-11-06T07:32:35.746Z,100.00
2022-11-06T07:35:37.273Z,100.00
2022-11-06T07:38:40.654Z,100.00
2022-11-06T07:41:42.188Z,100.00
2022-11-06T07:44:43.690Z,100.00
2022-11-06T07:47:45.236Z,100.00
2022-11-06T07:50:46.704Z,100.00
2022-11-06T07:53:48.190Z,100.00
2022-11-06T07:56:49.707Z,100.00
2022-11-06T07:59:51.263Z,100.00
2022-11-06T08:02:53.478Z,100.00
2022-11-06T08:05:55.102Z,100.00
2022-11-06T08:08:59.010Z,100.00
2022-11-06T08:12:00.793Z,100.00
2022-11-06T08:15:02.758Z,100.00
2022-11-06T08:18:05.730Z,100.00
2022-11-06T08:21:07.856Z,100.00
2022-11-06T08:24:09.781Z,100.00
2022-11-06T08:27:11.266Z,100.00
2022-11-06T08:30:12.884Z,100.00
2022-11-06T08:33:14.353Z,100.00
2022-11-06T08:36:16.787Z,100.00
2022-11-06T08:39:18.319Z,100.00
2022-11-06T08:42:19.943Z,100.00
2022-11-06T08:45:21.458Z,100.00
2022-11-06T08:48:23.017Z,100.00
2022-11-06T08:51:24.577Z,100.00
2022-11-06T08:54:26.394Z,100.00
2022-11-06T08:57:28.314Z,100.00
2022-11-06T09:00:35.644Z,100.00
2022-11-06T09:03:37.181Z,100.00
2022-11-06T09:06:38.794Z,100.00
2022-11-06T09:09:40.266Z,100.00
2022-11-06T09:12:41.937Z,100.00
2022-11-06T09:15:43.486Z,100.00
2022-11-06T09:18:44.959Z,100.00
2022-11-06T09:21:51.849Z,100.00
2022-11-06T09:25:03.706Z,100.00
2022-11-06T09:28:06.006Z,100.00
2022-11-06T09:31:10.511Z,99.71
2022-11-06T09:34:12.073Z,99.29
2022-11-06T09:37:13.606Z,97.81
2022-11-06T09:40:24.500Z,96.93
2022-11-06T09:47:23.467Z,95.58
2022-11-06T09:50:29.555Z,96.02
2022-11-06T09:53:42.574Z,94.97
2022-11-06T09:56:49.786Z,93.45
2022-11-06T09:59:51.683Z,92.38
2022-11-06T10:02:55.789Z,93.50
2022-11-06T10:05:57.665Z,92.34
2022-11-06T10:09:05.995Z,91.37
2022-11-06T10:12:07.669Z,91.14
2022-11-06T10:15:24.792Z,90.14
2022-11-06T10:18:33.725Z,89.08
2022-11-06T10:21:38.164Z,87.67
2022-11-06T10:24:47.005Z,86.56
2022-11-06T10:28:03.647Z,84.14
2022-11-06T10:31:30.064Z,84.31
2022-11-06T10:34:39.797Z,84.46
2022-11-06T10:37:50.592Z,84.52
2022-11-06T10:40:53.995Z,82.84
2022-11-06T10:44:02.722Z,81.13
2022-11-06T10:47:13.023Z,80.95
2022-11-06T10:50:16.993Z,80.52
2022-11-06T10:53:33.384Z,80.48
2022-11-06T10:57:19.580Z,80.42
2022-11-06T11:00:21.115Z,79.25
2022-11-06T11:03:34.206Z,77.57
2022-11-06T11:06:39.760Z,77.66
2022-11-06T11:09:41.311Z,77.08
2022-11-06T11:12:45.738Z,75.60
2022-11-06T11:15:47.861Z,75.80
2022-11-06T11:18:51.034Z,75.55
2022-11-06T11:21:58.618Z,75.50
2022-11-06T11:25:09.055Z,75.06
2022-11-06T11:28:22.098Z,74.14
2022-11-06T11:31:34.933Z,73.11
2022-11-06T11:34:49.371Z,72.69
2022-11-06T11:38:06.946Z,72.54
2022-11-06T11:41:32.540Z,73.36
2022-11-06T11:44:34.079Z,74.08
2022-11-06T11:47:37.598Z,73.50
2022-11-06T11:50:39.827Z,73.13
2022-11-06T11:53:50.447Z,72.89
2022-11-06T11:57:05.269Z,73.12
2022-11-06T12:00:16.574Z,71.79
2022-11-06T12:03:19.021Z,72.11
2022-11-06T12:06:20.615Z,71.99
2022-11-06T12:09:23.192Z,72.92
2022-11-06T12:12:35.015Z,72.33
2022-11-06T12:15:58.582Z,72.50
2022-11-06T12:19:05.421Z,71.80
2022-11-06T12:22:15.147Z,71.87
2022-11-06T12:25:22.384Z,72.89
2022-11-06T12:28:26.043Z,73.69
2022-11-06T12:31:41.892Z,74.58
2022-11-06T12:35:02.032Z,75.03
2022-11-06T12:38:34.648Z,75.21
2022-11-06T12:41:40.639Z,76.65
2022-11-06T12:44:42.244Z,76.81
2022-11-06T12:47:59.263Z,76.38
2022-11-06T12:51:06.554Z,77.20
2022-11-06T12:54:27.535Z,77.43
2022-11-06T12:57:28.939Z,77.02
2022-11-06T13:00:58.063Z,77.71
2022-11-06T13:04:28.461Z,78.77
2022-11-06T13:07:44.950Z,80.08
2022-11-06T13:11:04.779Z,79.30
2022-11-06T13:14:22.365Z,78.99
2022-11-06T13:17:49.484Z,79.84
2022-11-06T13:21:15.948Z,80.74
2022-11-06T13:24:42.636Z,80.76
2022-11-06T13:27:58.691Z,80.35
2022-11-06T13:31:03.475Z,79.46
2022-11-06T13:34:07.539Z,77.46
2022-11-06T13:37:19.338Z,76.31
2022-11-06T13:40:26.933Z,74.61
2022-11-06T13:43:42.621Z,72.67
2022-11-06T13:46:53.310Z,72.56
2022-11-06T13:50:13.074Z,74.13
2022-11-06T13:53:24.461Z,76.87
2022-11-06T13:57:02.675Z,77.48
2022-11-06T14:00:25.480Z,79.08
2022-11-06T14:03:44.099Z,80.25
2022-11-06T14:06:47.669Z,81.69
2022-11-06T14:09:49.593Z,82.36
2022-11-06T14:12:51.678Z,82.42
2022-11-06T14:16:04.445Z,82.44
2022-11-06T14:19:32.675Z,82.50
2022-11-06T14:22:36.763Z,83.27
2022-11-06T14:25:41.280Z,82.96
2022-11-06T14:28:44.676Z,83.29
2022-11-06T14:32:02.923Z,83.19
2022-11-06T14:35:29.503Z,83.65
2022-11-06T14:38:33.905Z,83.63
2022-11-06T14:41:35.454Z,83.79
2022-11-06T14:45:14.542Z,82.99
2022-11-06T14:48:36.576Z,82.86
2022-11-06T14:51:38.502Z,82.91
2022-11-06T14:55:05.044Z,83.10
2022-11-06T14:58:23.906Z,84.72
2022-11-06T15:01:31.688Z,84.82
2022-11-06T15:04:35.112Z,85.28
2022-11-06T15:08:04.090Z,86.99
2022-11-06T15:11:01.377Z,87.74
2022-11-06T15:14:09.084Z,88.81
2022-11-06T15:17:15.298Z,90.61
2022-11-06T15:20:21.932Z,91.06
2022-11-06T15:23:24.811Z,92.55
2022-11-06T15:26:37.639Z,93.31
2022-11-06T15:29:42.644Z,94.56
2022-11-06T15:32:46.474Z,95.18
2022-11-06T15:35:49.695Z,97.13
2022-11-06T15:38:51.412Z,97.41
2022-11-06T15:41:53.200Z,97.74
2022-11-06T15:45:07.939Z,99.29
2022-11-06T15:48:21.963Z,99.45
2022-11-06T15:51:31.249Z,100.00
2022-11-06T15:54:37.381Z,100.00
2022-11-06T15:57:39.003Z,100.00
2022-11-06T16:00:44.435Z,100.00
2022-11-06T16:03:54.601Z,100.00
2022-11-06T16:06:57.297Z,100.00
2022-11-06T16:09:59.026Z,100.00
2022-11-06T16:13:03.027Z,100.00
2022-11-06T16:16:04.928Z,100.00
2022-11-06T16:19:27.580Z,100.00
2022-11-06T16:22:31.895Z,100.00
2022-11-06T16:25:33.438Z,100.00
2022-11-06T16:28:35.683Z,100.00
2022-11-06T16:31:37.886Z,100.00
2022-11-06T16:34:45.982Z,100.00
2022-11-06T16:37:47.498Z,100.00
2022-11-06T16:40:52.538Z,100.00
2022-11-06T16:44:31.337Z,100.00
2022-11-06T16:47:33.585Z,100.00
2022-11-06T16:50:46.150Z,100.00
2022-11-06T16:53:54.936Z,100.00
2022-11-06T16:57:09.743Z,100.00
2022-11-06T17:00:20.271Z,100.00
2022-11-06T17:03:23.056Z,100.00
2022-11-06T17:06:28.099Z,100.00
2022-11-06T17:09:32.623Z,100.00
2022-11-06T17:12:34.117Z,100.00
2022-11-06T17:15:35.598Z,100.00
2022-11-06T17:18:42.248Z,100.00
2022-11-06T17:21:43.953Z,100.00
2022-11-06T17:24:45.626Z,100.00
2022-11-06T17:27:47.293Z,97.39
2022-11-06T17:30:48.885Z,93.40
2022-11-06T17:33:51.333Z,93.94
2022-11-06T17:36:52.919Z,91.36
2022-11-06T17:39:54.442Z,85.01
2022-11-06T17:42:55.929Z,77.17
2022-11-06T17:45:57.646Z,72.15
2022-11-06T17:49:00.073Z,68.21
2022-11-06T17:52:01.983Z,61.96
2022-11-06T17:55:03.963Z,59.89
2022-11-06T17:58:05.724Z,58.99
2022-11-06T18:01:10.795Z,56.94
2022-11-06T18:04:12.534Z,56.11
2022-11-06T18:07:14.090Z,56.60
2022-11-06T18:10:15.649Z,56.59
2022-11-06T18:13:17.211Z,57.80
2022-11-06T18:16:25.111Z,60.19
2022-11-06T18:19:27.126Z,62.91
2022-11-06T18:22:28.686Z,61.77
2022-11-06T18:25:30.534Z,61.74
2022-11-06T18:28:32.145Z,63.09
2022-11-06T18:31:34.946Z,65.02
2022-11-06T18:34:36.484Z,64.92
2022-11-06T18:37:38.059Z,64.65
2022-11-06T18:40:41.018Z,61.75
2022-11-06T18:43:42.937Z,62.87
2022-11-06T18:46:46.040Z,61.86
2022-11-06T18:49:47.573Z,63.41
2022-11-06T18:52:57.751Z,65.10
2022-11-06T18:56:00.272Z,66.35
2022-11-06T18:59:02.072Z,68.37
2022-11-06T19:02:03.838Z,68.58
2022-11-06T19:05:06.043Z,68.62
2022-11-06T19:08:07.832Z,68.46
2022-11-06T19:11:09.535Z,67.85
2022-11-06T19:14:11.087Z,68.68
2022-11-06T19:17:12.585Z,67.04
2022-11-06T19:20:15.183Z,67.62
2022-11-06T19:23:17.153Z,67.09
2022-11-06T19:26:31.218Z,64.60
2022-11-06T19:29:33.107Z,64.22
2022-11-06T19:32:34.857Z,64.61
2022-11-06T19:35:36.707Z,64.29
2022-11-06T19:38:38.467Z,63.11
2022-11-06T19:41:40.047Z,62.77
2022-11-06T19:44:41.562Z,62.97
2022-11-06T19:47:43.170Z,63.86
2022-11-06T19:50:59.564Z,63.67
2022-11-06T19:54:01.803Z,63.79
2022-11-06T19:57:29.069Z,63.91
2022-11-06T20:00:25.129Z,63.74
2022-11-06T20:03:26.649Z,64.27
2022-11-06T20:06:28.333Z,64.62
2022-11-06T20:09:30.105Z,64.50
2022-11-06T20:12:32.196Z,64.30
2022-11-06T20:15:34.036Z,63.86
2022-11-06T20:18:36.168Z,62.89
2022-11-06T20:21:37.664Z,62.59
2022-11-06T20:24:41.475Z,61.77
2022-11-06T20:27:43.451Z,62.36
2022-11-06T20:30:45.591Z,63.04
2022-11-06T20:33:48.268Z,62.79
2022-11-06T20:36:49.803Z,63.12
2022-11-06T20:39:52.135Z,63.44
2022-11-06T20:42:53.680Z,63.48
2022-11-06T20:45:55.235Z,63.31
2022-11-06T20:48:58.243Z,63.16
2022-11-06T20:52:13.613Z,62.63
2022-11-06T20:55:15.578Z,62.94
2022-11-06T20:58:17.128Z,62.81
2022-11-06T21:01:22.035Z,62.37
2022-11-06T21:04:23.624Z,62.19
2022-11-06T21:07:25.178Z,62.45
2022-11-06T21:10:26.735Z,62.04
2022-11-06T21:13:29.787Z,62.27
2022-11-06T21:16:34.685Z,62.07
2022-11-06T21:19:36.958Z,61.27
2022-11-06T21:22:38.513Z,61.68
2022-11-06T21:25:44.931Z,61.93
2022-11-06T21:28:47.162Z,61.34
2022-11-06T21:31:49.438Z,61.30
2022-11-06T21:34:50.949Z,61.40
2022-11-06T21:37:52.416Z,62.79
2022-11-06T21:40:53.869Z,63.36
2022-11-06T21:43:56.200Z,65.72
2022-11-06T21:46:57.734Z,68.27
2022-11-06T21:49:59.244Z,71.21
2022-11-06T21:53:19.338Z,73.74
2022-11-06T21:56:25.831Z,76.70
2022-11-06T21:59:29.285Z,78.66
2022-11-06T22:02:30.919Z,79.85
2022-11-06T22:05:32.815Z,81.48
2022-11-06T22:08:39.314Z,82.78
2022-11-06T22:11:43.945Z,83.28
2022-11-06T22:14:45.398Z,84.92
2022-11-06T22:17:46.998Z,86.68
2022-11-06T22:20:48.450Z,88.88
2022-11-06T22:23:50.555Z,91.34
2022-11-06T22:26:54.876Z,91.54
2022-11-06T22:29:56.479Z,92.37
2022-11-06T22:32:58.015Z,90.40
2022-11-06T22:36:02.438Z,89.89
2022-11-06T22:39:06.436Z,89.10
2022-11-06T22:42:08.881Z,89.43
2022-11-06T22:45:10.963Z,89.32
2022-11-06T22:48:12.555Z,87.89
2022-11-06T22:51:16.584Z,85.94
2022-11-06T22:54:18.078Z,84.71
2022-11-06T22:57:19.637Z,84.08
2022-11-06T23:00:22.499Z,84.24
2022-11-06T23:03:26.696Z,84.18
2022-11-06T23:06:28.608Z,83.75
2022-11-06T23:09:30.209Z,83.41
2022-11-06T23:12:32.442Z,82.33
2022-11-06T23:15:34.245Z,81.81
2022-11-06T23:18:36.068Z,81.32
2022-11-06T23:21:37.727Z,80.94
2022-11-06T23:24:39.324Z,80.28
2022-11-06T23:27:47.037Z,80.62
2022-11-06T23:30:53.867Z,81.47
2022-11-06T23:33:55.974Z,80.58
2022-11-06T23:36:57.422Z,80.04
2022-11-06T23:39:58.986Z,79.64
2022-11-06T23:43:00.476Z,79.25
2022-11-06T23:46:02.227Z,78.95
2022-11-06T23:49:03.723Z,78.73
2022-11-06T23:52:05.252Z,77.85
2022-11-06T23:55:07.177Z,78.11
2022-11-06T23:58:08.732Z,78.23
